sensor_id;sensor_type;location;lat;lon;timestamp;P1;durP1;ratioP1;P2;durP2;ratioP2
7231;SDS011;3657;49.630;11.018;2023-08-07T00:01:18;16.27;;;16.07;;
7231;SDS011;3657;49.630;11.018;2023-08-07T00:03:44;15.73;;;15.43;;
7231;SDS011;3657;49.630;11.018;2023-08-07T00:06:13;15.73;;;15.53;;
7231;SDS011;3657;49.630;11.018;2023-08-07T00:08:40;15.00;;;14.80;;
7231;SDS011;3657;49.630;11.018;2023-08-07T00:11:07;16.00;;;15.50;;
7231;SDS011;3657;49.630;11.018;2023-08-07T00:13:34;14.73;;;14.53;;
7231;SDS011;3657;49.630;11.018;2023-08-07T00:16:01;16.97;;;16.67;;
7231;SDS011;3657;49.630;11.018;2023-08-07T00:18:28;16.30;;;16.10;;
7231;SDS011;3657;49.630;11.018;2023-08-07T00:20:55;16.87;;;16.67;;
7231;SDS011;3657;49.630;11.018;2023-08-07T00:23:23;17.33;;;17.00;;
7231;SDS011;3657;49.630;11.018;2023-08-07T00:25:50;15.73;;;15.53;;
7231;SDS011;3657;49.630;11.018;2023-08-07T00:28:16;16.47;;;16.27;;
7231;SDS011;3657;49.630;11.018;2023-08-07T00:30:43;16.00;;;15.70;;
7231;SDS011;3657;49.630;11.018;2023-08-07T00:33:10;15.07;;;14.87;;
7231;SDS011;3657;49.630;11.018;2023-08-07T00:35:37;15.63;;;15.43;;
7231;SDS011;3657;49.630;11.018;2023-08-07T00:38:03;16.73;;;16.53;;
7231;SDS011;3657;49.630;11.018;2023-08-07T00:40:37;16.17;;;15.97;;
7231;SDS011;3657;49.630;11.018;2023-08-07T00:43:04;16.30;;;16.00;;
7231;SDS011;3657;49.630;11.018;2023-08-07T00:45:32;16.47;;;16.27;;
7231;SDS011;3657;49.630;11.018;2023-08-07T00:48:02;16.80;;;16.50;;
7231;SDS011;3657;49.630;11.018;2023-08-07T00:50:29;15.80;;;15.60;;
7231;SDS011;3657;49.630;11.018;2023-08-07T00:52:56;15.90;;;15.43;;
7231;SDS011;3657;49.630;11.018;2023-08-07T00:55:23;16.53;;;16.23;;
7231;SDS011;3657;49.630;11.018;2023-08-07T00:57:51;16.23;;;15.93;;
7231;SDS011;3657;49.630;11.018;2023-08-07T01:00:19;15.90;;;15.70;;
7231;SDS011;3657;49.630;11.018;2023-08-07T01:02:47;17.03;;;16.73;;
7231;SDS011;3657;49.630;11.018;2023-08-07T01:05:16;16.87;;;16.57;;
7231;SDS011;3657;49.630;11.018;2023-08-07T01:07:43;16.33;;;16.03;;
7231;SDS011;3657;49.630;11.018;2023-08-07T01:10:12;16.93;;;16.63;;
7231;SDS011;3657;49.630;11.018;2023-08-07T01:12:41;18.57;;;18.23;;
7231;SDS011;3657;49.630;11.018;2023-08-07T01:15:16;16.87;;;16.57;;
7231;SDS011;3657;49.630;11.018;2023-08-07T01:17:47;16.83;;;16.53;;
7231;SDS011;3657;49.630;11.018;2023-08-07T01:20:16;16.07;;;15.77;;
7231;SDS011;3657;49.630;11.018;2023-08-07T01:22:45;16.93;;;16.53;;
7231;SDS011;3657;49.630;11.018;2023-08-07T01:25:12;16.17;;;15.77;;
7231;SDS011;3657;49.630;11.018;2023-08-07T01:27:41;15.90;;;15.60;;
7231;SDS011;3657;49.630;11.018;2023-08-07T01:30:14;16.73;;;16.43;;
7231;SDS011;3657;49.630;11.018;2023-08-07T01:32:49;17.90;;;17.60;;
7231;SDS011;3657;49.630;11.018;2023-08-07T01:35:26;17.10;;;16.80;;
7231;SDS011;3657;49.630;11.018;2023-08-07T01:37:57;17.17;;;16.80;;
7231;SDS011;3657;49.630;11.018;2023-08-07T01:40:25;15.60;;;15.40;;
7231;SDS011;3657;49.630;11.018;2023-08-07T01:42:53;16.40;;;16.20;;
7231;SDS011;3657;49.630;11.018;2023-08-07T01:45:24;17.63;;;17.33;;
7231;SDS011;3657;49.630;11.018;2023-08-07T01:47:51;15.73;;;15.53;;
7231;SDS011;3657;49.630;11.018;2023-08-07T01:50:18;16.17;;;15.77;;
7231;SDS011;3657;49.630;11.018;2023-08-07T01:52:45;17.13;;;16.83;;
7231;SDS011;3657;49.630;11.018;2023-08-07T01:55:13;17.33;;;17.03;;
7231;SDS011;3657;49.630;11.018;2023-08-07T01:57:41;16.17;;;15.87;;
7231;SDS011;3657;49.630;11.018;2023-08-07T02:00:08;15.57;;;15.37;;
7231;SDS011;3657;49.630;11.018;2023-08-07T02:02:36;18.10;;;17.80;;
7231;SDS011;3657;49.630;11.018;2023-08-07T02:05:03;16.20;;;16.00;;
7231;SDS011;3657;49.630;11.018;2023-08-07T02:07:30;17.80;;;17.50;;
7231;SDS011;3657;49.630;11.018;2023-08-07T02:09:57;16.13;;;15.93;;
7231;SDS011;3657;49.630;11.018;2023-08-07T02:12:25;14.20;;;14.00;;
7231;SDS011;3657;49.630;11.018;2023-08-07T02:14:52;16.87;;;16.57;;
7231;SDS011;3657;49.630;11.018;2023-08-07T02:17:20;16.50;;;16.20;;
7231;SDS011;3657;49.630;11.018;2023-08-07T02:19:47;15.23;;;15.03;;
7231;SDS011;3657;49.630;11.018;2023-08-07T02:22:14;16.80;;;16.50;;
7231;SDS011;3657;49.630;11.018;2023-08-07T02:24:40;17.13;;;16.83;;
7231;SDS011;3657;49.630;11.018;2023-08-07T02:27:07;16.63;;;16.33;;
7231;SDS011;3657;49.630;11.018;2023-08-07T02:29:35;17.00;;;16.70;;
7231;SDS011;3657;49.630;11.018;2023-08-07T02:32:02;15.87;;;15.47;;
7231;SDS011;3657;49.630;11.018;2023-08-07T02:34:29;15.20;;;14.90;;
7231;SDS011;3657;49.630;11.018;2023-08-07T02:36:56;15.43;;;15.23;;
7231;SDS011;3657;49.630;11.018;2023-08-07T02:39:23;13.93;;;13.63;;
7231;SDS011;3657;49.630;11.018;2023-08-07T02:41:50;15.33;;;15.03;;
7231;SDS011;3657;49.630;11.018;2023-08-07T02:44:16;16.60;;;16.30;;
7231;SDS011;3657;49.630;11.018;2023-08-07T02:46:46;15.93;;;15.63;;
7231;SDS011;3657;49.630;11.018;2023-08-07T02:49:13;15.83;;;15.53;;
7231;SDS011;3657;49.630;11.018;2023-08-07T02:51:39;17.07;;;16.77;;
7231;SDS011;3657;49.630;11.018;2023-08-07T02:54:06;17.20;;;16.93;;
7231;SDS011;3657;49.630;11.018;2023-08-07T02:56:33;15.40;;;15.20;;
7231;SDS011;3657;49.630;11.018;2023-08-07T02:58:59;14.77;;;14.57;;
7231;SDS011;3657;49.630;11.018;2023-08-07T03:01:26;16.13;;;15.90;;
7231;SDS011;3657;49.630;11.018;2023-08-07T03:03:54;14.37;;;14.17;;
7231;SDS011;3657;49.630;11.018;2023-08-07T03:06:21;15.10;;;14.90;;
7231;SDS011;3657;49.630;11.018;2023-08-07T03:08:48;16.00;;;15.70;;
7231;SDS011;3657;49.630;11.018;2023-08-07T03:11:15;16.53;;;16.23;;
7231;SDS011;3657;49.630;11.018;2023-08-07T03:13:41;14.80;;;14.50;;
7231;SDS011;3657;49.630;11.018;2023-08-07T03:16:09;16.97;;;16.50;;
7231;SDS011;3657;49.630;11.018;2023-08-07T03:18:36;13.73;;;13.53;;
7231;SDS011;3657;49.630;11.018;2023-08-07T03:21:04;14.47;;;14.27;;
7231;SDS011;3657;49.630;11.018;2023-08-07T03:23:30;15.60;;;15.40;;
7231;SDS011;3657;49.630;11.018;2023-08-07T03:26:03;15.30;;;15.10;;
7231;SDS011;3657;49.630;11.018;2023-08-07T03:28:32;16.33;;;16.03;;
7231;SDS011;3657;49.630;11.018;2023-08-07T03:30:58;15.50;;;15.20;;
7231;SDS011;3657;49.630;11.018;2023-08-07T03:33:25;16.73;;;16.43;;
7231;SDS011;3657;49.630;11.018;2023-08-07T03:35:52;15.80;;;15.50;;
7231;SDS011;3657;49.630;11.018;2023-08-07T03:38:20;16.43;;;16.13;;
7231;SDS011;3657;49.630;11.018;2023-08-07T03:40:47;15.53;;;15.23;;
7231;SDS011;3657;49.630;11.018;2023-08-07T03:43:13;15.30;;;15.10;;
7231;SDS011;3657;49.630;11.018;2023-08-07T03:45:40;15.43;;;15.13;;
7231;SDS011;3657;49.630;11.018;2023-08-07T03:48:08;14.90;;;14.70;;
7231;SDS011;3657;49.630;11.018;2023-08-07T03:50:34;14.93;;;14.73;;
7231;SDS011;3657;49.630;11.018;2023-08-07T03:53:02;15.97;;;15.70;;
7231;SDS011;3657;49.630;11.018;2023-08-07T03:55:33;15.10;;;14.83;;
7231;SDS011;3657;49.630;11.018;2023-08-07T03:58:00;15.53;;;15.27;;
7231;SDS011;3657;49.630;11.018;2023-08-07T04:00:27;15.57;;;15.37;;
7231;SDS011;3657;49.630;11.018;2023-08-07T04:02:53;16.33;;;16.03;;
7231;SDS011;3657;49.630;11.018;2023-08-07T04:05:20;15.10;;;14.80;;
7231;SDS011;3657;49.630;11.018;2023-08-07T04:07:47;16.33;;;16.00;;
7231;SDS011;3657;49.630;11.018;2023-08-07T04:10:14;16.00;;;15.70;;
7231;SDS011;3657;49.630;11.018;2023-08-07T04:12:42;17.90;;;17.30;;
7231;SDS011;3657;49.630;11.018;2023-08-07T04:15:09;16.23;;;15.83;;
7231;SDS011;3657;49.630;11.018;2023-08-07T04:17:35;16.00;;;15.70;;
7231;SDS011;3657;49.630;11.018;2023-08-07T04:20:02;17.17;;;16.87;;
7231;SDS011;3657;49.630;11.018;2023-08-07T04:22:30;17.10;;;16.80;;
7231;SDS011;3657;49.630;11.018;2023-08-07T04:24:57;16.70;;;16.40;;
7231;SDS011;3657;49.630;11.018;2023-08-07T04:27:24;16.63;;;16.30;;
7231;SDS011;3657;49.630;11.018;2023-08-07T04:29:53;16.60;;;16.30;;
7231;SDS011;3657;49.630;11.018;2023-08-07T04:32:19;16.00;;;15.70;;
7231;SDS011;3657;49.630;11.018;2023-08-07T04:34:46;17.30;;;17.00;;
7231;SDS011;3657;49.630;11.018;2023-08-07T04:37:13;16.90;;;16.50;;
7231;SDS011;3657;49.630;11.018;2023-08-07T04:39:39;17.53;;;17.23;;
7231;SDS011;3657;49.630;11.018;2023-08-07T04:42:06;16.90;;;16.50;;
7231;SDS011;3657;49.630;11.018;2023-08-07T04:44:33;17.73;;;17.43;;
7231;SDS011;3657;49.630;11.018;2023-08-07T04:47:01;16.30;;;16.00;;
7231;SDS011;3657;49.630;11.018;2023-08-07T04:49:27;18.03;;;17.67;;
7231;SDS011;3657;49.630;11.018;2023-08-07T04:51:54;16.93;;;16.63;;
7231;SDS011;3657;49.630;11.018;2023-08-07T04:54:21;16.17;;;15.87;;
7231;SDS011;3657;49.630;11.018;2023-08-07T04:56:47;16.23;;;15.83;;
7231;SDS011;3657;49.630;11.018;2023-08-07T04:59:14;16.93;;;16.57;;
7231;SDS011;3657;49.630;11.018;2023-08-07T05:01:41;18.37;;;17.97;;
7231;SDS011;3657;49.630;11.018;2023-08-07T05:04:09;16.97;;;16.63;;
7231;SDS011;3657;49.630;11.018;2023-08-07T05:06:35;17.00;;;16.50;;
7231;SDS011;3657;49.630;11.018;2023-08-07T05:09:02;16.37;;;16.07;;
7231;SDS011;3657;49.630;11.018;2023-08-07T05:11:29;15.10;;;14.80;;
7231;SDS011;3657;49.630;11.018;2023-08-07T05:13:56;16.90;;;16.60;;
7231;SDS011;3657;49.630;11.018;2023-08-07T05:16:22;16.80;;;16.40;;
7231;SDS011;3657;49.630;11.018;2023-08-07T05:18:49;16.70;;;16.40;;
7231;SDS011;3657;49.630;11.018;2023-08-07T05:21:17;17.03;;;16.63;;
7231;SDS011;3657;49.630;11.018;2023-08-07T05:23:44;16.97;;;16.67;;
7231;SDS011;3657;49.630;11.018;2023-08-07T05:26:10;16.40;;;16.10;;
7231;SDS011;3657;49.630;11.018;2023-08-07T05:28:37;17.17;;;16.67;;
7231;SDS011;3657;49.630;11.018;2023-08-07T05:31:04;17.53;;;17.03;;
7231;SDS011;3657;49.630;11.018;2023-08-07T05:33:30;17.13;;;16.73;;
7231;SDS011;3657;49.630;11.018;2023-08-07T05:35:57;17.33;;;16.97;;
7231;SDS011;3657;49.630;11.018;2023-08-07T05:38:25;18.30;;;17.80;;
7231;SDS011;3657;49.630;11.018;2023-08-07T05:40:52;18.63;;;18.23;;
7231;SDS011;3657;49.630;11.018;2023-08-07T05:43:18;17.17;;;16.77;;
7231;SDS011;3657;49.630;11.018;2023-08-07T05:45:45;16.30;;;15.90;;
7231;SDS011;3657;49.630;11.018;2023-08-07T05:48:14;16.47;;;16.07;;
7231;SDS011;3657;49.630;11.018;2023-08-07T05:50:41;18.30;;;17.87;;
7231;SDS011;3657;49.630;11.018;2023-08-07T05:53:08;16.33;;;16.03;;
7231;SDS011;3657;49.630;11.018;2023-08-07T05:55:36;18.80;;;18.40;;
7231;SDS011;3657;49.630;11.018;2023-08-07T05:58:05;17.23;;;16.83;;
7231;SDS011;3657;49.630;11.018;2023-08-07T06:00:32;17.73;;;17.37;;
7231;SDS011;3657;49.630;11.018;2023-08-07T06:02:59;17.67;;;17.27;;
7231;SDS011;3657;49.630;11.018;2023-08-07T06:05:26;16.73;;;16.43;;
7231;SDS011;3657;49.630;11.018;2023-08-07T06:07:53;18.90;;;18.30;;
7231;SDS011;3657;49.630;11.018;2023-08-07T06:10:19;17.43;;;16.93;;
7231;SDS011;3657;49.630;11.018;2023-08-07T06:12:47;18.90;;;18.50;;
7231;SDS011;3657;49.630;11.018;2023-08-07T06:15:14;17.57;;;17.27;;
7231;SDS011;3657;49.630;11.018;2023-08-07T06:17:41;17.90;;;17.57;;
7231;SDS011;3657;49.630;11.018;2023-08-07T06:20:08;17.50;;;17.10;;
7231;SDS011;3657;49.630;11.018;2023-08-07T06:22:36;18.10;;;17.60;;
7231;SDS011;3657;49.630;11.018;2023-08-07T06:25:03;17.03;;;16.53;;
7231;SDS011;3657;49.630;11.018;2023-08-07T06:27:30;18.30;;;17.57;;
7231;SDS011;3657;49.630;11.018;2023-08-07T06:29:58;17.17;;;16.87;;
7231;SDS011;3657;49.630;11.018;2023-08-07T06:32:25;18.03;;;17.63;;
7231;SDS011;3657;49.630;11.018;2023-08-07T06:34:52;18.40;;;18.00;;
7231;SDS011;3657;49.630;11.018;2023-08-07T06:37:19;16.93;;;16.53;;
7231;SDS011;3657;49.630;11.018;2023-08-07T06:39:46;17.30;;;16.90;;
7231;SDS011;3657;49.630;11.018;2023-08-07T06:42:12;15.53;;;15.23;;
7231;SDS011;3657;49.630;11.018;2023-08-07T06:44:39;18.43;;;18.03;;
7231;SDS011;3657;49.630;11.018;2023-08-07T06:47:07;16.90;;;16.60;;
7231;SDS011;3657;49.630;11.018;2023-08-07T06:49:34;17.23;;;16.83;;
7231;SDS011;3657;49.630;11.018;2023-08-07T06:52:01;18.03;;;17.60;;
7231;SDS011;3657;49.630;11.018;2023-08-07T06:54:28;16.53;;;16.10;;
7231;SDS011;3657;49.630;11.018;2023-08-07T06:56:54;17.23;;;16.83;;
7231;SDS011;3657;49.630;11.018;2023-08-07T06:59:21;17.00;;;16.60;;
7231;SDS011;3657;49.630;11.018;2023-08-07T07:01:48;16.50;;;16.00;;
7231;SDS011;3657;49.630;11.018;2023-08-07T07:04:17;17.67;;;17.17;;
7231;SDS011;3657;49.630;11.018;2023-08-07T07:06:44;17.30;;;16.60;;
7231;SDS011;3657;49.630;11.018;2023-08-07T07:09:10;16.70;;;16.30;;
7231;SDS011;3657;49.630;11.018;2023-08-07T07:11:41;18.90;;;18.50;;
7231;SDS011;3657;49.630;11.018;2023-08-07T07:14:08;18.40;;;17.93;;
7231;SDS011;3657;49.630;11.018;2023-08-07T07:16:34;18.43;;;17.90;;
7231;SDS011;3657;49.630;11.018;2023-08-07T07:19:02;17.23;;;16.73;;
7231;SDS011;3657;49.630;11.018;2023-08-07T07:21:31;17.23;;;16.83;;
7231;SDS011;3657;49.630;11.018;2023-08-07T07:23:59;17.40;;;16.93;;
7231;SDS011;3657;49.630;11.018;2023-08-07T07:26:25;17.30;;;16.90;;
7231;SDS011;3657;49.630;11.018;2023-08-07T07:28:52;17.90;;;17.40;;
7231;SDS011;3657;49.630;11.018;2023-08-07T07:31:19;17.30;;;16.80;;
7231;SDS011;3657;49.630;11.018;2023-08-07T07:33:45;17.30;;;16.60;;
7231;SDS011;3657;49.630;11.018;2023-08-07T07:36:15;19.40;;;19.00;;
7231;SDS011;3657;49.630;11.018;2023-08-07T07:38:44;17.87;;;17.47;;
7231;SDS011;3657;49.630;11.018;2023-08-07T07:41:12;17.40;;;16.77;;
7231;SDS011;3657;49.630;11.018;2023-08-07T07:43:39;18.93;;;18.47;;
7231;SDS011;3657;49.630;11.018;2023-08-07T07:46:06;18.90;;;18.30;;
7231;SDS011;3657;49.630;11.018;2023-08-07T07:48:32;17.93;;;17.53;;
7231;SDS011;3657;49.630;11.018;2023-08-07T07:50:59;17.73;;;17.43;;
7231;SDS011;3657;49.630;11.018;2023-08-07T07:53:26;19.17;;;18.77;;
7231;SDS011;3657;49.630;11.018;2023-08-07T07:55:54;18.13;;;17.63;;
7231;SDS011;3657;49.630;11.018;2023-08-07T07:58:21;18.00;;;17.60;;
7231;SDS011;3657;49.630;11.018;2023-08-07T08:00:49;18.83;;;18.33;;
7231;SDS011;3657;49.630;11.018;2023-08-07T08:03:18;16.87;;;16.47;;
7231;SDS011;3657;49.630;11.018;2023-08-07T08:05:45;17.67;;;17.27;;
7231;SDS011;3657;49.630;11.018;2023-08-07T08:08:12;17.67;;;17.20;;
7231;SDS011;3657;49.630;11.018;2023-08-07T08:10:39;17.87;;;17.37;;
7231;SDS011;3657;49.630;11.018;2023-08-07T08:13:09;18.03;;;17.63;;
7231;SDS011;3657;49.630;11.018;2023-08-07T08:15:36;16.90;;;16.50;;
7231;SDS011;3657;49.630;11.018;2023-08-07T08:18:03;17.03;;;16.53;;
7231;SDS011;3657;49.630;11.018;2023-08-07T08:20:29;17.33;;;16.80;;
7231;SDS011;3657;49.630;11.018;2023-08-07T08:22:57;19.53;;;19.03;;
7231;SDS011;3657;49.630;11.018;2023-08-07T08:25:24;18.37;;;17.60;;
7231;SDS011;3657;49.630;11.018;2023-08-07T08:27:51;19.73;;;18.87;;
7231;SDS011;3657;49.630;11.018;2023-08-07T08:30:19;17.97;;;17.57;;
7231;SDS011;3657;49.630;11.018;2023-08-07T08:32:46;19.10;;;18.50;;
7231;SDS011;3657;49.630;11.018;2023-08-07T08:35:12;18.30;;;17.90;;
7231;SDS011;3657;49.630;11.018;2023-08-07T08:37:39;17.73;;;17.13;;
7231;SDS011;3657;49.630;11.018;2023-08-07T08:40:06;16.77;;;16.37;;
7231;SDS011;3657;49.630;11.018;2023-08-07T08:42:35;17.50;;;17.10;;
7231;SDS011;3657;49.630;11.018;2023-08-07T08:45:05;19.17;;;18.77;;
7231;SDS011;3657;49.630;11.018;2023-08-07T08:47:37;18.47;;;17.97;;
7231;SDS011;3657;49.630;11.018;2023-08-07T08:50:06;17.03;;;16.60;;
7231;SDS011;3657;49.630;11.018;2023-08-07T08:52:36;17.67;;;17.27;;
7231;SDS011;3657;49.630;11.018;2023-08-07T08:55:04;17.53;;;16.87;;
7231;SDS011;3657;49.630;11.018;2023-08-07T08:57:31;19.03;;;18.33;;
7231;SDS011;3657;49.630;11.018;2023-08-07T08:59:59;19.53;;;18.97;;
7231;SDS011;3657;49.630;11.018;2023-08-07T09:02:29;18.83;;;18.33;;
7231;SDS011;3657;49.630;11.018;2023-08-07T09:04:57;17.83;;;17.43;;
7231;SDS011;3657;49.630;11.018;2023-08-07T09:07:24;18.73;;;18.17;;
7231;SDS011;3657;49.630;11.018;2023-08-07T09:09:53;18.00;;;17.50;;
7231;SDS011;3657;49.630;11.018;2023-08-07T09:12:20;19.03;;;18.63;;
7231;SDS011;3657;49.630;11.018;2023-08-07T09:14:49;18.57;;;18.17;;
7231;SDS011;3657;49.630;11.018;2023-08-07T09:17:20;18.60;;;17.93;;
7231;SDS011;3657;49.630;11.018;2023-08-07T09:19:50;17.93;;;17.43;;
7231;SDS011;3657;49.630;11.018;2023-08-07T09:22:19;18.17;;;17.77;;
7231;SDS011;3657;49.630;11.018;2023-08-07T09:24:46;17.43;;;17.03;;
7231;SDS011;3657;49.630;11.018;2023-08-07T09:27:13;18.50;;;17.70;;
7231;SDS011;3657;49.630;11.018;2023-08-07T09:29:40;18.80;;;18.30;;
7231;SDS011;3657;49.630;11.018;2023-08-07T09:32:07;20.07;;;19.67;;
7231;SDS011;3657;49.630;11.018;2023-08-07T09:34:34;17.77;;;17.27;;
7231;SDS011;3657;49.630;11.018;2023-08-07T09:37:01;19.90;;;19.47;;
7231;SDS011;3657;49.630;11.018;2023-08-07T09:39:30;18.53;;;17.80;;
7231;SDS011;3657;49.630;11.018;2023-08-07T09:41:57;19.53;;;18.93;;
7231;SDS011;3657;49.630;11.018;2023-08-07T09:44:24;18.10;;;17.70;;
7231;SDS011;3657;49.630;11.018;2023-08-07T09:46:51;17.83;;;17.43;;
7231;SDS011;3657;49.630;11.018;2023-08-07T09:49:18;17.33;;;16.83;;
7231;SDS011;3657;49.630;11.018;2023-08-07T09:51:45;17.57;;;17.17;;
7231;SDS011;3657;49.630;11.018;2023-08-07T09:54:13;18.43;;;18.00;;
7231;SDS011;3657;49.630;11.018;2023-08-07T09:56:41;17.93;;;17.37;;
7231;SDS011;3657;49.630;11.018;2023-08-07T09:59:08;16.87;;;16.40;;
7231;SDS011;3657;49.630;11.018;2023-08-07T10:01:36;18.10;;;17.47;;
7231;SDS011;3657;49.630;11.018;2023-08-07T10:04:04;17.27;;;16.87;;
7231;SDS011;3657;49.630;11.018;2023-08-07T10:06:31;17.80;;;17.50;;
7231;SDS011;3657;49.630;11.018;2023-08-07T10:08:58;18.93;;;18.53;;
7231;SDS011;3657;49.630;11.018;2023-08-07T10:11:26;16.83;;;16.30;;
7231;SDS011;3657;49.630;11.018;2023-08-07T10:13:55;18.23;;;17.83;;
7231;SDS011;3657;49.630;11.018;2023-08-07T10:16:23;18.77;;;18.27;;
7231;SDS011;3657;49.630;11.018;2023-08-07T10:18:51;18.57;;;18.17;;
7231;SDS011;3657;49.630;11.018;2023-08-07T10:21:18;19.33;;;18.83;;
7231;SDS011;3657;49.630;11.018;2023-08-07T10:23:46;17.50;;;17.10;;
7231;SDS011;3657;49.630;11.018;2023-08-07T10:26:15;19.23;;;18.83;;
7231;SDS011;3657;49.630;11.018;2023-08-07T10:28:42;18.07;;;17.50;;
7231;SDS011;3657;49.630;11.018;2023-08-07T10:31:11;19.33;;;18.83;;
7231;SDS011;3657;49.630;11.018;2023-08-07T10:33:40;18.30;;;17.70;;
7231;SDS011;3657;49.630;11.018;2023-08-07T10:36:08;20.30;;;19.87;;
7231;SDS011;3657;49.630;11.018;2023-08-07T10:38:36;19.03;;;18.63;;
7231;SDS011;3657;49.630;11.018;2023-08-07T10:41:05;17.80;;;17.30;;
7231;SDS011;3657;49.630;11.018;2023-08-07T10:43:36;22.17;;;21.67;;
7231;SDS011;3657;49.630;11.018;2023-08-07T10:46:05;20.80;;;20.13;;
7231;SDS011;3657;49.630;11.018;2023-08-07T10:48:43;20.30;;;19.90;;
7231;SDS011;3657;49.630;11.018;2023-08-07T10:51:12;19.37;;;18.87;;
7231;SDS011;3657;49.630;11.018;2023-08-07T10:53:40;18.33;;;17.83;;
7231;SDS011;3657;49.630;11.018;2023-08-07T10:56:09;19.47;;;18.97;;
7231;SDS011;3657;49.630;11.018;2023-08-07T10:58:38;19.77;;;19.37;;
7231;SDS011;3657;49.630;11.018;2023-08-07T11:01:17;20.40;;;19.90;;
7231;SDS011;3657;49.630;11.018;2023-08-07T11:03:46;19.27;;;18.87;;
7231;SDS011;3657;49.630;11.018;2023-08-07T11:06:16;18.67;;;18.27;;
7231;SDS011;3657;49.630;11.018;2023-08-07T11:08:43;18.20;;;17.80;;
7231;SDS011;3657;49.630;11.018;2023-08-07T11:11:09;19.27;;;18.77;;
7231;SDS011;3657;49.630;11.018;2023-08-07T11:13:36;18.37;;;18.00;;
7231;SDS011;3657;49.630;11.018;2023-08-07T11:16:03;19.47;;;18.87;;
7231;SDS011;3657;49.630;11.018;2023-08-07T11:18:30;19.27;;;18.87;;
7231;SDS011;3657;49.630;11.018;2023-08-07T11:20:59;19.10;;;18.70;;
7231;SDS011;3657;49.630;11.018;2023-08-07T11:23:26;20.33;;;19.83;;
7231;SDS011;3657;49.630;11.018;2023-08-07T11:25:53;19.33;;;18.93;;
7231;SDS011;3657;49.630;11.018;2023-08-07T11:28:20;21.63;;;20.97;;
7231;SDS011;3657;49.630;11.018;2023-08-07T11:30:49;19.57;;;19.17;;
7231;SDS011;3657;49.630;11.018;2023-08-07T11:33:17;21.13;;;20.33;;
7231;SDS011;3657;49.630;11.018;2023-08-07T11:35:44;19.07;;;18.67;;
7231;SDS011;3657;49.630;11.018;2023-08-07T11:38:12;22.20;;;21.80;;
7231;SDS011;3657;49.630;11.018;2023-08-07T11:40:39;23.50;;;22.90;;
7231;SDS011;3657;49.630;11.018;2023-08-07T11:43:05;19.60;;;19.20;;
7231;SDS011;3657;49.630;11.018;2023-08-07T11:45:32;19.90;;;19.50;;
7231;SDS011;3657;49.630;11.018;2023-08-07T11:47:59;18.73;;;18.33;;
7231;SDS011;3657;49.630;11.018;2023-08-07T11:50:27;19.30;;;18.83;;
7231;SDS011;3657;49.630;11.018;2023-08-07T11:52:54;21.07;;;20.40;;
7231;SDS011;3657;49.630;11.018;2023-08-07T11:55:26;18.30;;;18.00;;
7231;SDS011;3657;49.630;11.018;2023-08-07T11:57:55;21.30;;;20.80;;
7231;SDS011;3657;49.630;11.018;2023-08-07T12:00:24;20.57;;;19.90;;
7231;SDS011;3657;49.630;11.018;2023-08-07T12:02:52;20.60;;;20.17;;
7231;SDS011;3657;49.630;11.018;2023-08-07T12:05:19;20.33;;;19.83;;
7231;SDS011;3657;49.630;11.018;2023-08-07T12:07:46;44.57;;;41.27;;
7231;SDS011;3657;49.630;11.018;2023-08-07T12:10:13;245.00;;;219.90;;
7231;SDS011;3657;49.630;11.018;2023-08-07T12:12:42;158.47;;;142.60;;
7231;SDS011;3657;49.630;11.018;2023-08-07T12:15:09;91.10;;;82.43;;
7231;SDS011;3657;49.630;11.018;2023-08-07T12:17:36;69.30;;;63.47;;
7231;SDS011;3657;49.630;11.018;2023-08-07T12:20:03;61.77;;;56.77;;
7231;SDS011;3657;49.630;11.018;2023-08-07T12:22:32;55.50;;;51.00;;
7231;SDS011;3657;49.630;11.018;2023-08-07T12:25:01;50.53;;;46.57;;
7231;SDS011;3657;49.630;11.018;2023-08-07T12:27:28;36.00;;;33.77;;
7231;SDS011;3657;49.630;11.018;2023-08-07T12:29:56;41.50;;;38.67;;
7231;SDS011;3657;49.630;11.018;2023-08-07T12:32:23;36.23;;;33.90;;
7231;SDS011;3657;49.630;11.018;2023-08-07T12:34:49;27.40;;;26.03;;
7231;SDS011;3657;49.630;11.018;2023-08-07T12:37:17;30.80;;;29.13;;
7231;SDS011;3657;49.630;11.018;2023-08-07T12:39:44;32.73;;;30.90;;
7231;SDS011;3657;49.630;11.018;2023-08-07T12:42:10;26.50;;;25.27;;
7231;SDS011;3657;49.630;11.018;2023-08-07T12:44:37;25.30;;;24.17;;
7231;SDS011;3657;49.630;11.018;2023-08-07T12:47:05;26.80;;;25.47;;
7231;SDS011;3657;49.630;11.018;2023-08-07T12:49:32;26.03;;;24.90;;
7231;SDS011;3657;49.630;11.018;2023-08-07T12:51:59;21.03;;;20.43;;
7231;SDS011;3657;49.630;11.018;2023-08-07T12:54:25;22.13;;;21.47;;
7231;SDS011;3657;49.630;11.018;2023-08-07T12:56:52;20.67;;;20.03;;
7231;SDS011;3657;49.630;11.018;2023-08-07T12:59:20;21.17;;;20.47;;
7231;SDS011;3657;49.630;11.018;2023-08-07T13:01:47;19.93;;;19.33;;
7231;SDS011;3657;49.630;11.018;2023-08-07T13:04:15;19.63;;;19.13;;
7231;SDS011;3657;49.630;11.018;2023-08-07T13:06:42;21.63;;;21.03;;
7231;SDS011;3657;49.630;11.018;2023-08-07T13:09:08;17.67;;;17.07;;
7231;SDS011;3657;49.630;11.018;2023-08-07T13:11:35;18.53;;;18.07;;
7231;SDS011;3657;49.630;11.018;2023-08-07T13:14:02;18.30;;;17.90;;
7231;SDS011;3657;49.630;11.018;2023-08-07T13:16:29;20.17;;;19.67;;
7231;SDS011;3657;49.630;11.018;2023-08-07T13:18:55;17.67;;;17.27;;
7231;SDS011;3657;49.630;11.018;2023-08-07T13:21:23;18.03;;;17.70;;
7231;SDS011;3657;49.630;11.018;2023-08-07T13:23:50;18.57;;;18.17;;
7231;SDS011;3657;49.630;11.018;2023-08-07T13:26:17;19.40;;;19.00;;
7231;SDS011;3657;49.630;11.018;2023-08-07T13:28:43;18.07;;;17.67;;
7231;SDS011;3657;49.630;11.018;2023-08-07T13:31:10;18.23;;;17.67;;
7231;SDS011;3657;49.630;11.018;2023-08-07T13:33:36;18.13;;;17.73;;
7231;SDS011;3657;49.630;11.018;2023-08-07T13:36:03;17.60;;;17.20;;
7231;SDS011;3657;49.630;11.018;2023-08-07T13:38:31;16.57;;;16.27;;
7231;SDS011;3657;49.630;11.018;2023-08-07T13:40:58;18.10;;;17.70;;
7231;SDS011;3657;49.630;11.018;2023-08-07T13:43:25;17.80;;;17.50;;
7231;SDS011;3657;49.630;11.018;2023-08-07T13:45:52;19.47;;;18.30;;
7231;SDS011;3657;49.630;11.018;2023-08-07T13:48:18;16.93;;;16.53;;
7231;SDS011;3657;49.630;11.018;2023-08-07T13:50:46;18.07;;;17.77;;
7231;SDS011;3657;49.630;11.018;2023-08-07T13:53:12;17.70;;;17.30;;
7231;SDS011;3657;49.630;11.018;2023-08-07T13:55:40;17.73;;;17.43;;
7231;SDS011;3657;49.630;11.018;2023-08-07T13:58:07;17.23;;;16.83;;
7231;SDS011;3657;49.630;11.018;2023-08-07T14:00:34;17.53;;;17.10;;
7231;SDS011;3657;49.630;11.018;2023-08-07T14:03:01;18.30;;;17.73;;
7231;SDS011;3657;49.630;11.018;2023-08-07T14:05:28;17.23;;;16.83;;
7231;SDS011;3657;49.630;11.018;2023-08-07T14:07:55;17.77;;;17.23;;
7231;SDS011;3657;49.630;11.018;2023-08-07T14:10:22;18.30;;;18.00;;
7231;SDS011;3657;49.630;11.018;2023-08-07T14:12:50;17.73;;;17.43;;
7231;SDS011;3657;49.630;11.018;2023-08-07T14:15:17;18.13;;;17.63;;
7231;SDS011;3657;49.630;11.018;2023-08-07T14:17:44;17.63;;;17.23;;
7231;SDS011;3657;49.630;11.018;2023-08-07T14:20:11;17.07;;;16.67;;
7231;SDS011;3657;49.630;11.018;2023-08-07T14:22:38;18.63;;;18.23;;
7231;SDS011;3657;49.630;11.018;2023-08-07T14:25:06;18.27;;;17.87;;
7231;SDS011;3657;49.630;11.018;2023-08-07T14:27:33;19.23;;;18.53;;
7231;SDS011;3657;49.630;11.018;2023-08-07T14:30:01;18.80;;;17.80;;
7231;SDS011;3657;49.630;11.018;2023-08-07T14:32:28;17.87;;;17.57;;
7231;SDS011;3657;49.630;11.018;2023-08-07T14:34:55;17.07;;;16.67;;